x

Southwest Pass, La (burl1) Weather Station

4:00pm - Wed 16th Aug 2017 All times are CDT. -5 hours from GMT.

  • Wind
    5mph, 5mph gusts
  • Air Temp 87°f
  • Sea Pressure 1017.5mb
  • Southwest Pass, La
  • Southwest Pass, La

More Historic Weather Station data

Upgrade to MSW Pro to gain access to the past 30 days of data for over 8000 Wavebouys and Weather Stations around the globe.

Join

Comparision Forecast

View Surf forecast
   
Wed 08/16 4:00pm 5 5 mph 1017.5mb 87f
3:00pm 3 5 mph 1017.7mb 87f
2:00pm 3 5 mph 1018.3mb 86f
1:00pm  -  1 mph 1018.7mb 87f
12:00pm 3 5 mph 1018.9mb 86f
11:00am 3 5 mph 1019mb 85f
10:00am 3 5 mph 1018.7mb 85f
9:00am 10 11 mph 1018.8mb 84f
8:00am 10 11 mph 1018.6mb 86f
7:00am 10 11 mph 1017.9mb 85f
6:00am 10 11 mph 1017mb 85f
5:00am 9 11 mph 1017mb 85f
4:00am 15 16 mph 1016.5mb 85f
3:00am 15 15 mph 1016.1mb 85f
2:00am 14 15 mph 1015.7mb 85f
1:00am 15 16 mph 1016mb 85f
12:00am 16 17 mph 1015.9mb 85f
Tue 08/15 11:00pm 13 14 mph 1015.8mb 84f
10:00pm 8 9 mph 1015.7mb 83f
9:00pm 2 3 mph 1015.9mb 83f
8:00pm 10 11 mph 1015.7mb 83f
7:00pm 2 2 mph 1015.6mb 83f
6:00pm  -  0 mph 1015.3mb 84f
5:00pm 3 3 mph 1015.4mb 84f
4:00pm 2 3 mph 1015.4mb 85f
3:00pm 7 8 mph 1015.6mb 83f
2:00pm 14 15 mph 1015.3mb 82f
1:00pm 21 23 mph 1015.8mb 83f
12:00pm 20 21 mph 1016.4mb 84f
11:00am 13 14 mph 1016.1mb 86f
10:00am 10 11 mph 1015.9mb 85f
9:00am 13 15 mph 1015.2mb 86f
8:00am 9 10 mph 1014.8mb 85f
7:00am 11 13 mph 1014.7mb 85f
6:00am 14 15 mph 1013.9mb 85f
5:00am 15 16 mph 1013.6mb 85f
4:00am 13 14 mph 1013.7mb 85f
3:00am 13 14 mph 1013.7mb 85f
2:00am 14 15 mph 1013.8mb 86f
1:00am 10 11 mph 1014.3mb 85f
12:00am 9 10 mph 1014.6mb 85f
Mon 08/14 11:00pm 8 9 mph 1014.8mb 85f
10:00pm 7 8 mph 1014.8mb 85f
9:00pm 13 14 mph 1013.8mb 85f
8:00pm 11 13 mph 1013.8mb 85f
6:00pm 11 11 mph 1013.5mb 85f
5:00pm 17 18 mph 1013.2mb 85f
4:00pm 14 15 mph 1013.3mb 85f
3:00pm 13 14 mph 1013.7mb 86f
2:00pm 11 11 mph 1014.5mb 86f
1:00pm 9 10 mph 1015mb 86f
12:00pm 8 10 mph 1015mb 86f
11:00am 13 14 mph 1014.8mb 85f
10:00am 8 8 mph 1014.8mb 86f
9:00am 9 9 mph 1014.7mb 85f
8:00am 9 11 mph 1014.5mb 85f
7:00am 11 13 mph 1014.4mb 85f
6:00am 10 10 mph 1014.2mb 84f
5:00am 13 15 mph 1013.8mb 85f
4:00am 11 13 mph 1013.5mb 85f
3:00am 10 11 mph 1013.2mb 85f
2:00am 8 10 mph 1013.8mb 85f
1:00am 10 11 mph 1014mb 85f
12:00am 11 13 mph 1014.4mb 85f
Sun 08/13 11:00pm 13 14 mph 1014.5mb 85f
10:00pm 9 10 mph 1014.6mb 85f
9:00pm 8 9 mph 1014mb 85f
8:00pm 7 8 mph 1013.6mb 85f
7:00pm 7 7 mph 1013.8mb 86f
6:00pm 11 14 mph 1013.9mb 86f
5:00pm 9 10 mph 1014.5mb 87f
4:00pm 6 7 mph 1014.6mb 87f
3:00pm 5 6 mph 1015.2mb 87f
2:00pm 1 2 mph 1015.1mb 87f
1:00pm 5 6 mph 1015.6mb 87f
12:00pm 10 11 mph 1015.9mb 86f
11:00am 8 9 mph 1016mb 85f
10:00am 5 6 mph 1015.9mb 87f
9:00am 8 9 mph 1015.4mb 85f
8:00am 11 11 mph 1015.4mb 85f
7:00am 11 11 mph 1014.9mb 85f
6:00am 11 13 mph 1014.7mb 84f
5:00am 11 13 mph 1014.1mb 84f
4:00am 10 13 mph 1013.8mb 84f
3:00am 9 10 mph 1013.6mb 84f
2:00am 7 8 mph 1014.3mb 84f
1:00am 6 7 mph 1014.6mb 84f
12:00am 7 7 mph 1015.4mb 84f
Sat 08/12 11:00pm 10 11 mph 1015.6mb 84f